首页
METAR-TAF:

METAR-TAF

机场 :

Deline, 西北特區, 加拿大

纬度: 65-12N, 经度: 123-26W, 海拔: 176米

当前天气观测

该预报发布于13小时和20分钟前的23:00 UTC
风速2节,风向多变
温度 -2°C
湿度 93%
气压 1008 hPa
能見度: 4.8公里
少量云层高于500英尺
少量云层高于1500英尺
散云层高于2000英尺
多云层高于3000英尺
多云层高于8000英尺
小雪, 轻雾

METAR: CYWJ 192300Z VRB02KT 3SM -SN BR FEW005 FEW015 SCT020 BKN030 BKN080 M02/M03 A2976 RMK ST1SC1SC2SC2AC1 SO2 AFT 1300UTC/LAST STFD OBS/NXT 201700UTC SLP095

时间: 06:20 (12:20 UTC)

预报

该预报发布于18小时和41分钟前的17:39 UTC
预报有效从19日的 18点(UTC)到 19日的 23点(UTC)
风速3节,风向多变
能見度: 4.8公里
散云层高于500英尺
阴天层高于1500英尺
小雪
短暂存在
从 19日的 18点(UTC)到 19日的 23点(UTC)
能見度: 1.2公里
多云层高于500英尺
阴天层高于1500英尺
小雪, 轻雾

TAF: CYWJ 191739Z 1918/1923 VRB03KT 3SM -SN SCT005 OVC015 TEMPO 1918/1923 3/4SM -SN BR BKN005 OVC015 RMK NXT FCST WILL BE ISSUED AT 211415Z

超过4000个机场的气象观测和天气预报(METAR&TAF报告)。

可查询的气象台以黄色和红色小点在地图上表示。

将鼠标移到小点上方,可查看气象台名称。

然后点击查看天气观测和预报。

如需切换地图:点击带黑十字的绿色按钮放大地图;点击带横线的绿色按钮缩小地图;或者点击绿色箭头查看邻近地区的地图。


METAR-TAF: